createdAt,value
2019-05-02T00:03:56.651Z,64.40
2019-05-02T00:09:04.053Z,65.47
2019-05-02T00:14:10.711Z,64.25
2019-05-02T00:19:16.100Z,62.93
2019-05-02T00:24:21.440Z,62.78
2019-05-02T00:29:26.978Z,62.40
2019-05-02T00:34:32.454Z,60.83
2019-05-02T00:39:38.153Z,61.95
2019-05-02T00:44:46.858Z,61.83
2019-05-02T00:49:50.681Z,59.60
2019-05-02T00:54:58.692Z,62.88
2019-05-02T01:00:03.874Z,62.80
2019-05-02T01:05:11.233Z,69.03
2019-05-02T01:10:21.203Z,67.87
2019-05-02T01:15:24.375Z,66.92
2019-05-02T01:20:30.011Z,62.40
2019-05-02T01:25:35.496Z,59.20
2019-05-02T01:31:13.017Z,65.12
2019-05-02T01:36:26.900Z,64.07
2019-05-02T01:41:32.552Z,66.83
2019-05-02T01:46:37.831Z,68.17
2019-05-02T01:51:47.674Z,68.67
2019-05-02T01:56:50.506Z,68.80
2019-05-02T02:01:57.943Z,70.12
2019-05-02T02:07:04.033Z,66.97
2019-05-02T02:12:11.274Z,67.70
2019-05-02T02:17:17.336Z,69.00
2019-05-02T02:22:39.169Z,60.43
2019-05-02T02:27:42.188Z,59.73
2019-05-02T02:32:50.216Z,59.00
2019-05-02T02:37:55.886Z,58.63
2019-05-02T02:43:12.710Z,59.33
2019-05-02T02:48:09.496Z,66.15
2019-05-02T02:53:18.369Z,64.70
2019-05-02T02:58:23.949Z,60.30
2019-05-02T03:03:30.582Z,61.05
2019-05-02T03:08:44.675Z,57.05
2019-05-02T03:14:07.503Z,72.90
2019-05-02T03:19:14.790Z,75.00
2019-05-02T03:24:19.631Z,75.75
2019-05-02T03:29:39.657Z,75.97
2019-05-02T03:34:46.659Z,86.87
2019-05-02T03:39:41.617Z,92.35
2019-05-02T03:44:54.926Z,92.35
2019-05-02T03:49:54.309Z,88.03
2019-05-02T03:54:59.880Z,91.42
2019-05-02T04:00:05.887Z,89.42
2019-05-02T04:05:12.025Z,89.53
2019-05-02T04:10:33.990Z,90.55
2019-05-02T04:15:40.113Z,87.15
2019-05-02T04:20:49.589Z,90.63
2019-05-02T04:25:55.040Z,90.27
2019-05-02T04:31:00.388Z,89.58
2019-05-02T04:36:14.201Z,91.12
2019-05-02T04:41:18.740Z,93.72
2019-05-02T04:46:27.269Z,91.83
2019-05-02T04:51:30.811Z,91.05
2019-05-02T04:56:42.076Z,93.33
2019-05-02T05:01:52.620Z,92.10
2019-05-02T05:06:56.062Z,93.07
2019-05-02T05:11:59.048Z,92.60
2019-05-02T05:17:07.880Z,91.93
2019-05-02T05:22:12.848Z,91.30
2019-05-02T05:27:22.520Z,90.63
2019-05-02T05:32:25.436Z,89.32
2019-05-02T05:37:30.695Z,88.92
2019-05-02T05:42:37.923Z,91.82
2019-05-02T05:47:42.975Z,90.03
2019-05-02T05:52:51.702Z,87.15
2019-05-02T05:58:03.127Z,85.87
2019-05-02T06:03:11.555Z,83.97
2019-05-02T06:08:13.888Z,84.03
2019-05-02T06:13:18.690Z,86.25
2019-05-02T06:18:24.016Z,85.47
2019-05-02T06:23:31.018Z,84.03
2019-05-02T06:28:41.656Z,85.35
2019-05-02T06:33:44.470Z,109.20
2019-05-02T06:38:52.281Z,80.92
2019-05-02T06:43:56.921Z,81.67
2019-05-02T06:49:02.593Z,80.00
2019-05-02T06:54:08.050Z,77.95
2019-05-02T06:59:18.446Z,77.80
2019-05-02T07:04:22.816Z,76.82
2019-05-02T07:09:39.909Z,73.50
2019-05-02T07:14:34.821Z,72.15
2019-05-02T07:19:43.863Z,70.03
2019-05-02T07:24:50.210Z,69.93
2019-05-02T07:29:57.629Z,69.12
2019-05-02T07:35:02.551Z,68.10
2019-05-02T07:40:12.122Z,67.55
2019-05-02T07:45:17.203Z,67.80
2019-05-02T07:50:22.740Z,65.95
2019-05-02T07:55:30.534Z,67.60
2019-05-02T08:00:37.057Z,71.42
2019-05-02T08:05:42.617Z,66.90
2019-05-02T08:10:47.857Z,68.52
2019-05-02T08:15:53.124Z,68.62
2019-05-02T08:20:58.505Z,66.77
2019-05-02T08:26:04.106Z,68.75
2019-05-02T08:31:13.582Z,66.37
2019-05-02T08:36:17.815Z,65.22
2019-05-02T08:41:23.090Z,66.20
2019-05-02T08:46:28.679Z,63.60
2019-05-02T08:51:33.935Z,63.20
2019-05-02T08:56:39.508Z,59.83
2019-05-02T09:01:44.873Z,60.43
2019-05-02T09:06:53.135Z,60.55
2019-05-02T09:12:08.683Z,62.08
2019-05-02T09:17:08.882Z,62.90
2019-05-02T09:22:13.154Z,60.23
2019-05-02T09:27:18.493Z,59.93
2019-05-02T09:32:26.211Z,60.88
2019-05-02T09:37:32.104Z,57.50
2019-05-02T09:42:37.771Z,56.73
2019-05-02T09:47:56.295Z,58.45
2019-05-02T09:52:52.265Z,56.92
2019-05-02T09:57:58.871Z,56.95
2019-05-02T10:03:04.389Z,54.60
2019-05-02T10:08:13.505Z,49.70
2019-05-02T10:13:16.684Z,56.48
2019-05-02T10:18:28.340Z,54.48
2019-05-02T10:23:28.997Z,54.70
2019-05-02T10:28:34.251Z,52.90
2019-05-02T10:33:39.607Z,49.60
2019-05-02T10:38:49.090Z,44.98
2019-05-02T10:43:56.641Z,45.15
2019-05-02T10:49:12.473Z,41.73
2019-05-02T10:54:20.506Z,42.93
2019-05-02T10:59:24.941Z,43.87
2019-05-02T11:04:32.437Z,41.25
2019-05-02T11:09:37.640Z,45.00
2019-05-02T11:14:57.716Z,44.57
2019-05-02T11:20:05.224Z,43.50
2019-05-02T11:25:12.084Z,43.53
2019-05-02T11:30:22.417Z,42.35
2019-05-02T11:35:24.691Z,41.23
2019-05-02T11:40:32.024Z,41.70
2019-05-02T11:45:37.402Z,42.03
2019-05-02T11:50:43.783Z,40.63
2019-05-02T11:55:49.242Z,43.80
2019-05-02T12:00:54.527Z,41.08
2019-05-02T12:06:01.831Z,37.48
2019-05-02T12:11:08.430Z,30.70
2019-05-02T12:16:14.620Z,31.50
2019-05-02T12:21:19.997Z,29.35
2019-05-02T12:26:27.632Z,28.87
2019-05-02T12:31:33.237Z,26.30
2019-05-02T12:36:38.663Z,27.43
2019-05-02T12:41:44.353Z,25.85
2019-05-02T12:46:51.802Z,27.00
2019-05-02T12:51:57.178Z,19.73
2019-05-02T12:57:02.555Z,19.17
2019-05-02T13:02:12.161Z,15.18
2019-05-02T13:07:17.428Z,16.10
2019-05-02T13:12:27.824Z,17.95
2019-05-02T13:17:35.667Z,18.32
2019-05-02T13:23:00.930Z,18.45
2019-05-02T13:28:05.567Z,19.07
2019-05-02T13:33:14.235Z,18.80
2019-05-02T13:38:23.003Z,18.45
2019-05-02T13:43:33.216Z,20.05
2019-05-02T13:48:38.968Z,20.10
2019-05-02T13:54:03.257Z,19.43
2019-05-02T13:59:10.513Z,19.30
2019-05-02T14:04:16.330Z,19.77
2019-05-02T14:09:44.048Z,20.77
2019-05-02T14:14:51.929Z,20.70
2019-05-02T14:20:08.525Z,21.00
2019-05-02T14:25:08.023Z,17.82
2019-05-02T14:30:13.985Z,15.53
2019-05-02T14:35:28.228Z,13.50
2019-05-02T14:40:34.149Z,9.07
2019-05-02T14:45:41.958Z,11.75
2019-05-02T14:50:46.667Z,12.07
2019-05-02T14:55:57.574Z,13.53
2019-05-02T15:01:02.873Z,13.68
2019-05-02T15:06:09.119Z,14.07
2019-05-02T15:11:14.467Z,13.57
2019-05-02T15:16:23.052Z,13.98
2019-05-02T15:21:42.300Z,15.43
2019-05-02T15:26:48.343Z,16.12
2019-05-02T15:32:16.061Z,18.85
2019-05-02T15:37:25.673Z,19.45
2019-05-02T15:42:28.892Z,18.92
2019-05-02T15:47:36.936Z,20.97
2019-05-02T15:52:43.190Z,20.33
2019-05-02T15:57:49.479Z,21.27
2019-05-02T16:02:56.271Z,20.30
2019-05-02T16:08:06.299Z,20.27
2019-05-02T16:13:15.451Z,21.52
2019-05-02T16:18:16.984Z,20.62
2019-05-02T16:23:42.454Z,20.17
2019-05-02T16:28:47.936Z,21.25
2019-05-02T16:33:57.398Z,20.65
2019-05-02T16:39:05.111Z,20.97
2019-05-02T16:44:12.703Z,20.25
2019-05-02T16:49:18.746Z,19.50
2019-05-02T16:54:24.181Z,19.70
2019-05-02T16:59:30.135Z,18.57
2019-05-02T17:04:36.619Z,19.17
2019-05-02T17:10:02.809Z,17.50
2019-05-02T17:15:31.328Z,17.62
2019-05-02T17:20:33.955Z,15.83
2019-05-02T17:26:01.735Z,16.62
2019-05-02T17:31:10.855Z,16.73
2019-05-02T17:36:15.392Z,16.05
2019-05-02T17:41:22.234Z,15.43
2019-05-02T17:46:27.841Z,15.83
2019-05-02T17:52:05.362Z,17.00
2019-05-02T17:57:03.471Z,15.50
2019-05-02T18:02:12.319Z,14.95
2019-05-02T18:07:18.105Z,17.02
2019-05-02T18:12:23.549Z,16.70
2019-05-02T18:17:29.165Z,17.17
2019-05-02T18:22:39.965Z,17.48
2019-05-02T18:27:42.801Z,15.63
2019-05-02T18:32:48.186Z,14.47
2019-05-02T18:37:54.410Z,13.30
2019-05-02T18:43:03.574Z,14.30
2019-05-02T18:48:07.039Z,13.50
2019-05-02T18:53:18.630Z,14.60
2019-05-02T18:58:22.876Z,15.53
2019-05-02T19:03:29.167Z,15.98
2019-05-02T19:08:46.707Z,15.73
2019-05-02T19:13:46.076Z,14.00
2019-05-02T19:18:55.850Z,12.43
2019-05-02T19:23:58.519Z,11.33
2019-05-02T19:29:26.998Z,11.00
2019-05-02T19:34:33.458Z,9.63
2019-05-02T19:39:44.831Z,7.40
2019-05-02T19:44:46.560Z,7.92
2019-05-02T19:49:54.256Z,9.28
2019-05-02T19:54:59.433Z,10.03
2019-05-02T20:00:06.736Z,8.90
2019-05-02T20:05:16.469Z,10.00
2019-05-02T20:10:19.655Z,10.70
2019-05-02T20:15:30.230Z,11.55
2019-05-02T20:20:58.250Z,12.58
2019-05-02T20:26:03.804Z,13.50
2019-05-02T20:31:09.200Z,12.07
2019-05-02T20:36:14.779Z,11.63
2019-05-02T20:41:22.406Z,11.10
2019-05-02T20:46:27.872Z,11.70
2019-05-02T20:51:36.331Z,11.37
2019-05-02T20:56:42.628Z,10.60
2019-05-02T21:01:48.559Z,10.78
2019-05-02T21:07:11.323Z,9.63
2019-05-02T21:12:16.623Z,9.98
2019-05-02T21:17:22.158Z,12.35
2019-05-02T21:22:29.424Z,14.30
2019-05-02T21:27:35.295Z,17.73
2019-05-02T21:32:42.642Z,18.48
2019-05-02T21:37:49.187Z,18.37
2019-05-02T21:42:54.781Z,20.20
2019-05-02T21:48:02.155Z,21.82
2019-05-02T21:53:13.559Z,23.67
2019-05-02T21:58:19.122Z,25.23
2019-05-02T22:03:25.917Z,25.70
2019-05-02T22:08:32.344Z,27.00
2019-05-02T22:13:38.244Z,27.15
2019-05-02T22:18:43.889Z,28.65
2019-05-02T22:23:49.405Z,28.97
2019-05-02T22:28:54.728Z,28.95
2019-05-02T22:34:01.991Z,29.67
2019-05-02T22:39:35.207Z,30.17
2019-05-02T22:44:41.735Z,31.05
2019-05-02T22:49:47.535Z,32.73
2019-05-02T22:54:53.094Z,33.10
2019-05-02T22:59:58.479Z,34.38
2019-05-02T23:05:03.820Z,28.80
2019-05-02T23:10:09.414Z,25.45
2019-05-02T23:15:14.639Z,25.52
2019-05-02T23:20:21.775Z,24.52
2019-05-02T23:25:44.638Z,25.00
2019-05-02T23:30:51.872Z,25.53
2019-05-02T23:35:57.292Z,23.73
2019-05-02T23:41:02.767Z,24.40
2019-05-02T23:46:09.068Z,22.13
2019-05-02T23:51:14.572Z,21.65
2019-05-02T23:56:21.983Z,21.70
